Time;durP1;ratioP1;P1;durP2;ratioP2;P2;SDS_P1;SDS_P2;PMS_P1;PMS_P2;Temp;Humidity;BMP_temperature;BMP_pressure;BME280_temperature;BME280_humidity;BME280_pressure;Samples;Min_cycle;Max_cycle;Signal;HPM_P1;HPM_P2
2020/12/06 00:01:30;;;;;;;32.70;15.60;;;1.50;99.90;;;;;;5017569;28;47157;-74
2020/12/06 00:03:56;;;;;;;42.33;19.23;;;1.40;99.90;;;;;;5018866;28;37117;-75
2020/12/06 00:06:22;;;;;;;42.00;20.43;;;1.40;99.90;;;;;;5035389;28;36176;-75
2020/12/06 00:08:52;;;;;;;34.60;18.83;;;1.40;99.90;;;;;;5022565;28;36228;-75
2020/12/06 00:11:19;;;;;;;114.70;38.07;;;1.40;99.90;;;;;;5023822;28;38031;-75
2020/12/06 00:13:45;;;;;;;53.87;23.80;;;1.20;99.90;;;;;;5016131;28;38262;-74
2020/12/06 00:16:13;;;;;;;103.63;35.47;;;1.10;99.90;;;;;;5015426;28;37435;-74
2020/12/06 00:18:41;;;;;;;104.87;33.97;;;1.10;99.90;;;;;;5016396;28;38907;-74
2020/12/06 00:21:11;;;;;;;68.17;27.80;;;1.00;99.90;;;;;;5028171;28;38454;-74
2020/12/06 00:23:37;;;;;;;36.67;17.97;;;1.00;99.90;;;;;;5016957;28;39172;-75
2020/12/06 00:26:03;;;;;;;23.73;13.50;;;1.00;99.90;;;;;;5019980;28;36614;-75
2020/12/06 00:28:29;;;;;;;17.43;12.03;;;1.00;99.90;;;;;;5012134;28;38945;-75
2020/12/06 00:30:56;;;;;;;17.00;12.63;;;0.90;99.90;;;;;;5024246;28;37452;-74
2020/12/06 00:33:22;;;;;;;17.67;12.20;;;0.80;99.90;;;;;;5015031;28;37968;-74
2020/12/06 00:35:48;;;;;;;17.77;11.43;;;0.80;99.90;;;;;;5013150;28;36542;-74
2020/12/06 00:38:14;;;;;;;19.00;13.00;;;0.80;99.90;;;;;;5029110;28;37614;-74
2020/12/06 00:40:40;;;;;;;21.40;14.70;;;0.70;99.90;;;;;;5016391;28;38554;-74
2020/12/06 00:43:06;;;;;;;18.63;13.07;;;0.70;99.90;;;;;;5014382;28;38108;-74
2020/12/06 00:45:32;;;;;;;16.87;11.80;;;0.70;99.90;;;;;;5015552;28;37399;-75
2020/12/06 00:47:58;;;;;;;20.77;14.50;;;0.80;99.90;;;;;;5023698;28;37828;-74
2020/12/06 00:50:24;;;;;;;22.80;14.20;;;0.80;99.90;;;;;;5013784;28;39195;-74
2020/12/06 00:52:50;;;;;;;14.50;11.80;;;0.80;99.90;;;;;;5020110;28;37862;-74
2020/12/06 00:55:16;;;;;;;22.47;13.30;;;0.80;99.90;;;;;;5049779;28;36583;-75
2020/12/06 00:57:42;;;;;;;19.23;13.90;;;0.90;99.90;;;;;;5024607;28;38539;-75
2020/12/06 01:00:10;;;;;;;18.93;14.00;;;0.90;99.90;;;;;;5023086;28;39119;-75
2020/12/06 01:02:37;;;;;;;19.57;13.17;;;0.80;99.90;;;;;;5022145;28;36000;-74
2020/12/06 01:05:04;;;;;;;20.43;15.03;;;0.80;99.90;;;;;;5007947;28;37268;-75
2020/12/06 01:07:41;;;;;;;24.57;13.77;;;0.80;99.90;;;;;;5020687;28;39250;-75
2020/12/06 01:10:08;;;;;;;17.70;13.93;;;0.80;99.90;;;;;;5038043;28;37728;-75
2020/12/06 01:12:35;;;;;;;19.10;13.30;;;0.90;99.90;;;;;;5020288;28;38437;-74
2020/12/06 01:15:01;;;;;;;16.90;11.77;;;0.90;99.90;;;;;;5021284;28;37835;-74
2020/12/06 01:17:27;;;;;;;18.07;13.23;;;0.80;99.90;;;;;;5018130;28;47362;-74
2020/12/06 01:19:53;;;;;;;21.03;14.07;;;0.70;99.90;;;;;;5003624;28;37658;-75
2020/12/06 01:22:19;;;;;;;22.87;16.13;;;0.70;99.90;;;;;;5000826;28;38258;-74
2020/12/06 01:24:45;;;;;;;22.10;15.77;;;0.60;99.90;;;;;;4999298;28;37353;-75
2020/12/06 01:27:12;;;;;;;16.43;12.10;;;0.50;99.90;;;;;;5007450;28;39477;-74
2020/12/06 01:29:38;;;;;;;16.50;11.47;;;0.40;99.90;;;;;;5013391;28;37224;-74
2020/12/06 01:32:04;;;;;;;20.77;14.33;;;0.30;99.90;;;;;;5023194;28;38067;-74
2020/12/06 01:34:30;;;;;;;16.30;11.83;;;0.20;99.90;;;;;;5034540;28;37416;-74
2020/12/06 01:36:56;;;;;;;18.73;13.30;;;0.10;99.90;;;;;;5017704;28;39390;-74
2020/12/06 01:39:22;;;;;;;22.07;13.67;;;0.10;99.90;;;;;;5003909;28;38533;-74
2020/12/06 01:41:53;;;;;;;15.90;12.50;;;0.00;99.90;;;;;;5017230;28;37962;-74
2020/12/06 01:44:19;;;;;;;15.67;11.97;;;0.00;99.90;;;;;;5027223;28;37132;-75
2020/12/06 01:46:50;;;;;;;15.03;11.20;;;0.00;99.90;;;;;;5034276;28;37702;-74
2020/12/06 01:49:20;;;;;;;19.30;14.30;;;0.00;99.90;;;;;;5011396;28;37364;-74
2020/12/06 01:51:51;;;;;;;21.67;14.83;;;-0.10;99.90;;;;;;5013149;28;37985;-74
2020/12/06 01:54:17;;;;;;;16.00;11.70;;;-0.20;99.90;;;;;;5013642;28;38370;-74
2020/12/06 01:56:43;;;;;;;18.17;13.10;;;-0.20;99.90;;;;;;5021135;28;38576;-74
2020/12/06 01:59:11;;;;;;;20.70;12.93;;;-0.30;99.90;;;;;;5021771;28;38749;-75
2020/12/06 02:01:39;;;;;;;16.27;13.80;;;-0.40;99.90;;;;;;5021316;28;36376;-74
2020/12/06 02:04:06;;;;;;;18.57;14.37;;;-0.40;99.90;;;;;;5027611;28;36727;-75
2020/12/06 02:06:32;;;;;;;22.83;15.37;;;-0.40;99.90;;;;;;5023712;28;39886;-74
2020/12/06 02:08:58;;;;;;;17.40;12.90;;;-0.50;99.90;;;;;;5012223;28;37270;-75
2020/12/06 02:11:31;;;;;;;23.10;16.43;;;-0.50;99.90;;;;;;5038246;28;38786;-75
2020/12/06 02:13:58;;;;;;;22.45;14.65;;;-0.50;99.90;;;;;;5025892;28;36627;-75
2020/12/06 02:16:24;;;;;;;18.77;13.27;;;-0.40;99.90;;;;;;5025613;28;38868;-74
2020/12/06 02:18:51;;;;;;;21.70;15.97;;;-0.40;99.90;;;;;;5035110;28;37210;-75
2020/12/06 02:21:17;;;;;;;23.23;16.30;;;-0.20;99.90;;;;;;5026605;28;37206;-75
2020/12/06 02:23:43;;;;;;;18.23;13.43;;;-0.20;99.90;;;;;;5018146;28;36188;-74
2020/12/06 02:26:09;;;;;;;24.10;15.70;;;-0.10;99.90;;;;;;5026139;28;39205;-74
2020/12/06 02:28:35;;;;;;;28.03;19.77;;;-0.10;99.90;;;;;;5025416;28;38217;-74
2020/12/06 02:31:02;;;;;;;20.97;15.97;;;0.00;99.90;;;;;;5025272;28;37010;-74
2020/12/06 02:33:28;;;;;;;23.80;16.30;;;0.00;99.90;;;;;;5020233;28;38378;-74
2020/12/06 02:35:54;;;;;;;26.90;16.93;;;0.10;99.90;;;;;;5024663;28;38034;-74
2020/12/06 02:38:20;;;;;;;26.77;19.90;;;0.30;99.90;;;;;;5020459;28;38593;-74
2020/12/06 02:40:46;;;;;;;26.17;17.97;;;0.50;99.90;;;;;;5019220;28;37300;-74
2020/12/06 02:43:12;;;;;;;28.53;20.27;;;0.60;99.90;;;;;;5025773;28;37519;-74
2020/12/06 02:45:38;;;;;;;22.73;16.90;;;0.70;99.90;;;;;;5025700;28;38349;-74
2020/12/06 02:48:04;;;;;;;30.00;20.87;;;0.70;99.90;;;;;;5007253;28;38593;-74
2020/12/06 02:50:30;;;;;;;26.40;17.67;;;0.70;99.90;;;;;;5000600;28;37861;-74
2020/12/06 02:52:57;;;;;;;26.43;19.23;;;0.70;99.90;;;;;;5014578;28;37321;-74
2020/12/06 02:55:27;;;;;;;28.73;18.33;;;0.70;99.90;;;;;;5004453;28;37905;-74
2020/12/06 02:57:53;;;;;;;31.60;19.60;;;0.70;99.90;;;;;;5020300;28;37799;-74
2020/12/06 03:00:20;;;;;;;28.17;19.93;;;0.70;99.90;;;;;;5003015;28;38180;-74
2020/12/06 03:02:46;;;;;;;24.03;16.67;;;0.70;99.90;;;;;;5022822;28;37519;-74
2020/12/06 03:05:12;;;;;;;28.70;19.53;;;0.60;99.90;;;;;;5016907;28;38548;-74
2020/12/06 03:07:38;;;;;;;30.63;20.33;;;0.50;99.90;;;;;;5008487;28;39102;-74
2020/12/06 03:10:06;;;;;;;29.40;20.97;;;0.40;99.90;;;;;;5020215;28;37057;-74
2020/12/06 03:12:36;;;;;;;22.57;17.03;;;0.30;99.90;;;;;;5027176;28;37031;-74
2020/12/06 03:15:03;;;;;;;21.60;14.73;;;0.10;99.90;;;;;;5007292;28;38384;-74
2020/12/06 03:17:29;;;;;;;27.03;17.00;;;0.00;99.90;;;;;;5005893;28;38266;-74
2020/12/06 03:19:55;;;;;;;32.57;21.63;;;-0.10;99.90;;;;;;5022559;28;38023;-74
2020/12/06 03:22:21;;;;;;;26.73;17.80;;;-0.20;99.90;;;;;;5010264;28;37668;-74
2020/12/06 03:24:47;;;;;;;38.20;22.97;;;-0.30;99.90;;;;;;5024059;28;39414;-74
2020/12/06 03:27:13;;;;;;;26.80;18.73;;;-0.30;99.90;;;;;;5022965;28;38299;-74
2020/12/06 03:29:39;;;;;;;24.87;16.73;;;-0.40;99.90;;;;;;5022412;28;38308;-75
2020/12/06 03:32:05;;;;;;;28.23;18.63;;;-0.50;99.90;;;;;;5033737;28;38786;-74
2020/12/06 03:34:31;;;;;;;27.77;18.67;;;-0.50;99.90;;;;;;5034743;28;37915;-73
2020/12/06 03:36:57;;;;;;;28.60;18.23;;;-0.50;99.90;;;;;;5026014;28;37673;-76
2020/12/06 03:39:23;;;;;;;21.63;15.57;;;-0.60;99.90;;;;;;5022808;28;36958;-74
2020/12/06 03:41:49;;;;;;;25.60;15.33;;;-0.60;99.90;;;;;;5025819;28;37444;-76
2020/12/06 03:44:15;;;;;;;26.77;17.47;;;-0.70;99.90;;;;;;5018829;28;38766;-74
2020/12/06 03:46:42;;;;;;;26.90;18.80;;;-0.70;99.90;;;;;;5024935;28;38548;-76
2020/12/06 03:49:08;;;;;;;28.17;19.00;;;-0.60;99.90;;;;;;5022622;28;38217;-77
2020/12/06 03:51:34;;;;;;;26.43;17.87;;;-0.50;99.90;;;;;;5028468;28;37234;-73
2020/12/06 03:54:00;;;;;;;37.70;23.73;;;-0.50;99.90;;;;;;5034105;28;37747;-77
2020/12/06 03:56:26;;;;;;;41.37;25.83;;;-0.50;99.90;;;;;;5026203;28;38944;-74
2020/12/06 03:58:52;;;;;;;39.90;24.97;;;-0.40;99.90;;;;;;5022458;28;37496;-74
2020/12/06 04:01:18;;;;;;;32.27;21.60;;;-0.40;99.90;;;;;;5025244;28;34438;-76
2020/12/06 04:03:44;;;;;;;32.27;23.47;;;-0.40;99.90;;;;;;5013112;28;39487;-76
2020/12/06 04:06:10;;;;;;;34.87;23.33;;;-0.40;99.90;;;;;;5025248;28;37954;-76
2020/12/06 04:08:36;;;;;;;37.63;25.50;;;-0.50;99.90;;;;;;5021058;28;38379;-76
2020/12/06 04:11:03;;;;;;;34.33;21.93;;;-0.60;99.90;;;;;;5027295;28;38154;-76
2020/12/06 04:13:29;;;;;;;33.20;21.77;;;-0.60;99.90;;;;;;5021202;28;38502;-76
2020/12/06 04:15:55;;;;;;;25.40;18.40;;;-0.70;99.90;;;;;;5024420;28;38269;-76
2020/12/06 04:18:21;;;;;;;32.30;22.13;;;-0.70;99.90;;;;;;5024185;28;37694;-76
2020/12/06 04:20:47;;;;;;;30.50;19.90;;;-0.70;99.90;;;;;;5022656;28;37516;-76
2020/12/06 04:23:13;;;;;;;34.83;23.33;;;-0.70;99.90;;;;;;5020337;28;38592;-76
2020/12/06 04:25:39;;;;;;;31.30;21.70;;;-0.70;99.90;;;;;;5013875;28;38278;-76
2020/12/06 04:28:05;;;;;;;38.43;25.33;;;-0.80;99.90;;;;;;5014434;28;39478;-76
2020/12/06 04:30:31;;;;;;;31.83;22.03;;;-0.70;99.90;;;;;;5018871;28;36261;-76
2020/12/06 04:32:57;;;;;;;41.30;25.27;;;-0.70;99.90;;;;;;5014940;28;38715;-76
2020/12/06 04:35:23;;;;;;;38.17;22.03;;;-0.70;99.90;;;;;;5019977;28;38445;-76
2020/12/06 04:37:49;;;;;;;41.83;25.40;;;-0.70;99.90;;;;;;5017150;28;38321;-76
2020/12/06 04:40:16;;;;;;;42.03;27.67;;;-0.80;99.90;;;;;;5026284;28;38507;-76
2020/12/06 04:42:42;;;;;;;38.40;25.83;;;-0.80;99.90;;;;;;5037678;28;38428;-76
2020/12/06 04:45:08;;;;;;;33.43;22.57;;;-0.80;99.90;;;;;;5031312;28;37634;-76
2020/12/06 04:47:48;;;;;;;38.40;23.90;;;-0.80;99.90;;;;;;5015102;28;38494;-76
2020/12/06 04:50:32;;;;;;;35.23;23.60;;;-0.80;99.90;;;;;;5019154;28;36363;-77
2020/12/06 04:53:00;;;;;;;30.13;21.77;;;-0.90;99.90;;;;;;5018090;28;40470;-77
2020/12/06 04:55:31;;;;;;;37.73;24.83;;;-0.90;99.90;;;;;;5033598;28;35356;-76
2020/12/06 04:57:59;;;;;;;39.87;25.33;;;-0.90;99.90;;;;;;5025643;28;37096;-76
2020/12/06 05:00:35;;;;;;;36.80;25.30;;;-0.90;99.90;;;;;;5015315;28;37438;-76
2020/12/06 05:03:06;;;;;;;42.63;26.63;;;-0.80;99.90;;;;;;5021223;28;38010;-76
2020/12/06 05:05:40;;;;;;;39.90;26.40;;;-0.70;99.90;;;;;;5021588;28;38409;-77
2020/12/06 05:08:09;;;;;;;56.80;33.73;;;-0.60;99.90;;;;;;5038108;28;37224;-76
2020/12/06 05:10:38;;;;;;;53.30;31.17;;;-0.70;99.90;;;;;;5023624;28;38185;-76
2020/12/06 05:13:05;;;;;;;59.00;33.00;;;-0.70;99.90;;;;;;5036879;28;37538;-76
2020/12/06 05:15:31;;;;;;;62.67;34.00;;;-0.70;99.90;;;;;;5007949;28;37811;-76
2020/12/06 05:17:58;;;;;;;45.80;28.67;;;-0.70;99.90;;;;;;5003806;28;37766;-76
2020/12/06 05:20:26;;;;;;;45.67;29.20;;;-0.80;99.90;;;;;;4995095;28;37037;-76
2020/12/06 05:22:53;;;;;;;51.40;30.73;;;-0.70;99.90;;;;;;5012914;28;38363;-76
2020/12/06 05:25:19;;;;;;;47.33;29.30;;;-0.70;99.90;;;;;;5018681;28;38102;-76
2020/12/06 05:27:46;;;;;;;49.60;31.33;;;-0.60;99.90;;;;;;5003409;28;38181;-76
2020/12/06 05:30:12;;;;;;;55.47;32.07;;;-0.60;99.90;;;;;;5015821;28;36415;-76
2020/12/06 05:32:39;;;;;;;55.67;33.77;;;-0.60;99.90;;;;;;5022264;28;38808;-76
2020/12/06 05:35:06;;;;;;;52.90;30.67;;;-0.60;99.90;;;;;;5034850;28;36027;-74
2020/12/06 05:37:34;;;;;;;49.47;30.00;;;-0.60;99.90;;;;;;5035303;28;37802;-76
2020/12/06 05:40:02;;;;;;;61.37;34.93;;;-0.50;99.90;;;;;;5017623;28;38224;-76
2020/12/06 05:42:30;;;;;;;49.23;31.57;;;-0.50;99.90;;;;;;5019810;28;45903;-76
2020/12/06 05:44:56;;;;;;;43.10;27.67;;;-0.50;99.90;;;;;;5022874;28;38823;-76
2020/12/06 05:47:23;;;;;;;47.87;29.00;;;-0.40;99.90;;;;;;5024887;28;37907;-76
2020/12/06 05:49:49;;;;;;;46.87;27.03;;;-0.40;99.90;;;;;;5022656;28;36653;-76
2020/12/06 05:52:21;;;;;;;40.87;25.70;;;-0.30;99.90;;;;;;5022012;28;38298;-76
2020/12/06 05:54:48;;;;;;;38.58;25.25;;;-0.30;99.90;;;;;;5013301;28;38324;-76
2020/12/06 05:57:14;;;;;;;41.17;26.60;;;-0.30;99.90;;;;;;5027505;28;36419;-76
2020/12/06 05:59:41;;;;;;;52.90;31.40;;;-0.30;99.90;;;;;;5019202;28;38013;-76
2020/12/06 06:02:08;;;;;;;47.80;27.77;;;-0.30;99.90;;;;;;5031399;28;36300;-76
2020/12/06 06:04:39;;;;;;;43.23;26.73;;;-0.30;99.90;;;;;;5049951;28;36621;-76
2020/12/06 06:07:09;;;;;;;47.87;28.17;;;-0.30;99.90;;;;;;5045602;28;37012;-76
2020/12/06 06:09:41;;;;;;;55.27;32.20;;;-0.30;99.90;;;;;;5015540;28;38393;-76
2020/12/06 06:12:27;;;;;;;42.97;27.02;;;-0.30;99.90;;;;;;5018032;28;37874;-76
2020/12/06 06:14:56;;;;;;;50.00;30.60;;;-0.20;99.90;;;;;;5018616;28;38218;-76
2020/12/06 06:17:25;;;;;;;38.97;24.20;;;-0.20;99.90;;;;;;5018639;28;37075;-76
2020/12/06 06:19:52;;;;;;;41.63;25.90;;;-0.10;99.90;;;;;;5017889;28;36291;-76
2020/12/06 06:22:25;;;;;;;50.53;30.13;;;0.00;99.90;;;;;;5016929;28;38082;-76
2020/12/06 06:24:52;;;;;;;47.57;28.23;;;-0.10;99.90;;;;;;5031678;28;39012;-76
2020/12/06 06:27:19;;;;;;;52.17;31.07;;;-0.10;99.90;;;;;;5018448;28;37743;-76
2020/12/06 06:29:45;;;;;;;48.00;28.33;;;-0.10;99.90;;;;;;5017935;28;37560;-76
2020/12/06 06:32:11;;;;;;;42.93;26.40;;;-0.20;99.90;;;;;;5014363;28;38952;-76
2020/12/06 06:34:38;;;;;;;37.70;25.50;;;-0.10;99.90;;;;;;5020230;28;38118;-76
2020/12/06 06:37:15;;;;;;;48.23;28.97;;;-0.10;99.90;;;;;;5013914;28;37377;-76
2020/12/06 06:39:42;;;;;;;40.37;25.97;;;-0.10;99.90;;;;;;5017946;28;37097;-76
2020/12/06 06:42:12;;;;;;;51.37;28.37;;;0.00;99.90;;;;;;5044469;28;38839;-76
2020/12/06 06:44:40;;;;;;;54.73;32.63;;;-0.10;99.90;;;;;;5044222;28;37207;-76
2020/12/06 06:47:11;;;;;;;50.83;30.40;;;0.00;99.90;;;;;;5035877;28;37225;-76
2020/12/06 06:49:50;;;;;;;60.27;34.03;;;-0.10;99.90;;;;;;5017933;28;37393;-76
2020/12/06 06:52:17;;;;;;;58.20;32.50;;;-0.10;99.90;;;;;;5018216;28;38583;-76
2020/12/06 06:54:47;;;;;;;51.60;31.53;;;-0.10;99.90;;;;;;5021883;28;38235;-76
2020/12/06 06:57:15;;;;;;;67.70;38.03;;;-0.10;99.90;;;;;;5037534;28;37139;-76
2020/12/06 06:59:49;;;;;;;57.73;34.40;;;-0.10;99.90;;;;;;5019684;28;37537;-76
2020/12/06 07:02:39;;;;;;;56.20;33.53;;;0.00;99.90;;;;;;5018694;28;38964;-76
2020/12/06 07:05:20;;;;;;;48.57;29.47;;;0.00;99.90;;;;;;5017771;28;37964;-76
2020/12/06 07:07:54;;;;;;;62.27;34.27;;;0.10;99.90;;;;;;5020751;28;38187;-76
2020/12/06 07:10:23;;;;;;;55.50;33.10;;;0.20;99.90;;;;;;5021869;28;38433;-76
2020/12/06 07:12:56;;;;;;;52.47;32.17;;;0.20;99.90;;;;;;5017917;28;36915;-76
2020/12/06 07:15:24;;;;;;;51.20;32.23;;;0.20;99.90;;;;;;5015928;28;39524;-73
2020/12/06 07:17:51;;;;;;;53.73;34.23;;;0.20;99.90;;;;;;5048121;28;37016;-73
2020/12/06 07:20:18;;;;;;;70.67;39.67;;;0.20;99.90;;;;;;5033184;28;36316;-76
2020/12/06 07:22:47;;;;;;;57.23;33.77;;;0.20;99.90;;;;;;5021733;28;36706;-73
2020/12/06 07:25:15;;;;;;;82.13;41.43;;;0.30;99.90;;;;;;5017973;28;38503;-74
2020/12/06 07:27:41;;;;;;;40.30;27.37;;;0.30;99.90;;;;;;5027032;28;37226;-75
2020/12/06 07:30:15;;;;;;;74.00;38.60;;;0.30;99.90;;;;;;5019254;28;37448;-74
2020/12/06 07:32:41;;;;;;;54.77;34.20;;;0.40;99.90;;;;;;5020814;28;37639;-74
2020/12/06 07:35:09;;;;;;;39.47;26.73;;;0.40;99.90;;;;;;5019871;28;38629;-74
2020/12/06 07:37:36;;;;;;;61.63;35.83;;;0.40;99.90;;;;;;5026185;28;37740;-74
2020/12/06 07:40:08;;;;;;;58.80;35.73;;;0.40;99.90;;;;;;5025504;28;37089;-74
2020/12/06 07:42:34;;;;;;;44.78;30.95;;;0.50;99.90;;;;;;5019888;28;38573;-74
2020/12/06 07:45:02;;;;;;;43.17;28.73;;;0.50;99.90;;;;;;5021560;28;36306;-74
2020/12/06 07:47:28;;;;;;;50.27;31.87;;;0.60;99.90;;;;;;5026589;28;46979;-74
2020/12/06 07:49:56;;;;;;;44.67;29.93;;;0.60;99.90;;;;;;5016751;28;36287;-74
2020/12/06 07:52:32;;;;;;;41.10;28.47;;;0.70;99.90;;;;;;5021417;28;38546;-74
2020/12/06 07:55:07;;;;;;;69.03;40.03;;;0.70;99.90;;;;;;5020869;28;37301;-75
2020/12/06 07:57:47;;;;;;;76.63;44.33;;;0.70;99.90;;;;;;5019806;28;47081;-74
2020/12/06 08:00:28;;;;;;;82.43;46.57;;;0.70;99.90;;;;;;5022952;28;36040;-74
2020/12/06 08:03:00;;;;;;;69.27;38.83;;;0.80;99.90;;;;;;5023135;28;38782;-75
2020/12/06 08:05:31;;;;;;;95.77;48.23;;;0.80;99.90;;;;;;5035928;28;46642;-74
2020/12/06 08:08:19;;;;;;;71.53;41.03;;;0.80;99.90;;;;;;5022920;28;38321;-74
2020/12/06 08:10:54;;;;;;;72.60;41.67;;;0.80;99.90;;;;;;5022495;28;47004;-74
2020/12/06 08:13:20;;;;;;;64.57;38.80;;;0.80;99.90;;;;;;5023711;28;37531;-74
2020/12/06 08:15:46;;;;;;;42.90;28.10;;;0.90;99.90;;;;;;5020962;28;38263;-74
2020/12/06 08:18:13;;;;;;;40.70;28.87;;;0.90;99.90;;;;;;5017946;28;38006;-74
2020/12/06 08:20:40;;;;;;;48.43;31.17;;;1.00;99.90;;;;;;5036942;28;38399;-75
2020/12/06 08:23:06;;;;;;;62.47;38.87;;;1.10;99.90;;;;;;5021525;28;40175;-74
2020/12/06 08:25:34;;;;;;;63.10;38.10;;;1.10;99.90;;;;;;5016707;28;37795;-74
2020/12/06 08:28:02;;;;;;;40.60;28.83;;;1.20;99.90;;;;;;5022738;28;38614;-75
2020/12/06 08:30:30;;;;;;;47.90;30.27;;;1.20;99.90;;;;;;5022237;28;48713;-74
2020/12/06 08:33:01;;;;;;;43.17;29.57;;;1.30;99.90;;;;;;5021266;28;38165;-74
2020/12/06 08:35:46;;;;;;;47.07;29.80;;;1.40;99.90;;;;;;5015984;28;47162;-74
2020/12/06 08:38:24;;;;;;;37.77;26.13;;;1.50;99.90;;;;;;5020163;28;38113;-75
2020/12/06 08:41:12;;;;;;;63.53;36.50;;;1.50;99.90;;;;;;5048660;28;36358;-75
2020/12/06 08:43:48;;;;;;;57.13;35.23;;;1.60;99.90;;;;;;5021618;28;47380;-75
2020/12/06 08:46:23;;;;;;;68.60;38.40;;;1.60;99.90;;;;;;5033071;28;38795;-75
2020/12/06 08:48:52;;;;;;;55.20;34.47;;;1.70;99.90;;;;;;5049533;28;37325;-75
2020/12/06 08:51:36;;;;;;;59.10;36.00;;;1.70;99.90;;;;;;5016838;28;38829;-75
2020/12/06 08:54:11;;;;;;;72.13;40.80;;;1.90;99.90;;;;;;5023136;28;38941;-75
2020/12/06 08:56:43;;;;;;;50.77;32.73;;;2.00;99.90;;;;;;5020655;28;39651;-75
2020/12/06 08:59:11;;;;;;;64.93;38.30;;;2.00;99.90;;;;;;5032346;28;37895;-75
2020/12/06 09:01:55;;;;;;;56.03;34.27;;;2.10;99.90;;;;;;5028127;28;38743;-74
2020/12/06 09:04:22;;;;;;;46.23;29.93;;;2.20;99.90;;;;;;5007153;28;39354;-74
2020/12/06 09:06:50;;;;;;;48.50;32.33;;;2.20;99.90;;;;;;4998468;28;37906;-74
2020/12/06 09:09:16;;;;;;;49.13;30.83;;;2.30;99.90;;;;;;5024656;28;39133;-75
2020/12/06 09:11:42;;;;;;;41.03;27.87;;;2.30;99.90;;;;;;5032718;28;36500;-75
2020/12/06 09:14:08;;;;;;;42.33;28.60;;;2.40;99.90;;;;;;5017126;28;39310;-75
2020/12/06 09:16:37;;;;;;;40.23;26.83;;;2.50;99.90;;;;;;5021833;28;38214;-75
2020/12/06 09:19:03;;;;;;;39.63;28.00;;;2.60;99.90;;;;;;5014675;28;37832;-75
2020/12/06 09:21:29;;;;;;;41.00;27.17;;;2.60;99.90;;;;;;5035302;28;36900;-75
2020/12/06 09:23:55;;;;;;;34.87;25.37;;;2.70;99.90;;;;;;5022197;28;37069;-75
2020/12/06 09:26:21;;;;;;;44.60;30.63;;;2.70;99.90;;;;;;5031471;28;37694;-75
2020/12/06 09:28:47;;;;;;;35.67;24.77;;;2.70;99.90;;;;;;5026605;28;38625;-75
2020/12/06 09:31:13;;;;;;;45.87;29.60;;;2.80;99.90;;;;;;5023221;28;37481;-76
2020/12/06 09:33:39;;;;;;;40.43;28.07;;;2.80;99.90;;;;;;5015092;28;38662;-76
2020/12/06 09:36:05;;;;;;;41.97;30.13;;;2.90;99.90;;;;;;5023243;28;39151;-76
2020/12/06 09:38:32;;;;;;;43.93;28.83;;;2.90;99.90;;;;;;5026203;28;38053;-76
2020/12/06 09:40:58;;;;;;;52.17;34.13;;;3.00;99.90;;;;;;5028661;28;37493;-77
2020/12/06 09:43:24;;;;;;;64.37;38.47;;;3.10;99.90;;;;;;5038345;28;39005;-76
2020/12/06 09:45:50;;;;;;;48.97;30.90;;;3.20;99.90;;;;;;5024469;28;38483;-77
2020/12/06 09:48:16;;;;;;;37.00;27.83;;;3.30;99.90;;;;;;5027161;28;38170;-77
2020/12/06 09:50:43;;;;;;;50.17;34.07;;;3.40;99.90;;;;;;5023787;28;36645;-76
2020/12/06 09:53:09;;;;;;;49.97;32.80;;;3.40;99.90;;;;;;5033210;28;39098;-76
2020/12/06 09:55:35;;;;;;;64.50;41.70;;;3.50;99.90;;;;;;5024280;28;37806;-77
2020/12/06 09:58:01;;;;;;;56.07;35.70;;;3.60;99.90;;;;;;5021409;28;38367;-75
2020/12/06 10:00:27;;;;;;;46.10;32.53;;;3.70;99.90;;;;;;5024333;28;34226;-77
2020/12/06 10:02:54;;;;;;;39.63;27.43;;;3.80;99.90;;;;;;5028050;28;39620;-78
2020/12/06 10:05:20;;;;;;;44.77;29.70;;;3.70;99.90;;;;;;5023923;28;39122;-78
2020/12/06 10:07:46;;;;;;;36.27;26.37;;;3.80;99.90;;;;;;5023056;28;38375;-78
2020/12/06 10:10:12;;;;;;;34.63;25.83;;;3.90;99.90;;;;;;5017537;28;36374;-77
2020/12/06 10:12:38;;;;;;;32.73;23.60;;;3.90;99.90;;;;;;5025988;28;39199;-78
2020/12/06 10:15:04;;;;;;;31.80;22.77;;;3.90;99.90;;;;;;5025420;28;39270;-77
2020/12/06 10:17:31;;;;;;;32.20;21.50;;;3.90;99.90;;;;;;5005715;28;39280;-77
2020/12/06 10:19:58;;;;;;;34.23;25.17;;;3.90;99.90;;;;;;5038813;28;35611;-76
2020/12/06 10:22:24;;;;;;;27.97;21.80;;;4.00;99.90;;;;;;5023857;28;37965;-77
2020/12/06 10:24:50;;;;;;;30.27;22.97;;;4.10;99.90;;;;;;5024759;28;39543;-76
2020/12/06 10:27:17;;;;;;;29.50;22.33;;;4.20;99.90;;;;;;5018210;28;38239;-76
2020/12/06 10:29:43;;;;;;;29.97;22.07;;;4.20;99.90;;;;;;5016138;28;37572;-77
2020/12/06 10:32:09;;;;;;;31.33;23.03;;;4.10;99.90;;;;;;5045018;28;37713;-77
2020/12/06 10:34:35;;;;;;;34.77;24.07;;;4.20;99.90;;;;;;5030872;28;37560;-77
2020/12/06 10:37:01;;;;;;;31.77;23.27;;;4.30;99.90;;;;;;5029595;28;37070;-77
2020/12/06 10:39:27;;;;;;;28.30;21.87;;;4.30;99.90;;;;;;5030157;28;38325;-78
2020/12/06 10:41:54;;;;;;;30.60;21.33;;;4.30;99.90;;;;;;5029084;28;39228;-77
2020/12/06 10:44:22;;;;;;;32.30;21.57;;;4.30;99.90;;;;;;5016467;28;39093;-74
2020/12/06 10:46:48;;;;;;;29.67;20.30;;;4.40;99.90;;;;;;5020553;28;38247;-75
2020/12/06 10:49:15;;;;;;;30.33;22.43;;;4.40;99.90;;;;;;5021012;28;37107;-74
2020/12/06 10:51:42;;;;;;;29.10;21.73;;;4.50;99.90;;;;;;5024071;28;39190;-75
2020/12/06 10:54:09;;;;;;;28.00;20.50;;;4.50;99.90;;;;;;5022941;28;39335;-74
2020/12/06 10:56:39;;;;;;;25.83;19.87;;;4.50;99.90;;;;;;5031721;28;38083;-75
2020/12/06 10:59:06;;;;;;;28.50;20.83;;;4.40;99.90;;;;;;5025081;28;38345;-75
2020/12/06 11:01:33;;;;;;;27.07;20.63;;;4.40;99.90;;;;;;5019620;28;39019;-75
2020/12/06 11:03:59;;;;;;;27.07;19.17;;;4.40;99.90;;;;;;5041325;28;38552;-75
2020/12/06 11:06:26;;;;;;;28.53;22.57;;;4.40;99.90;;;;;;5024826;28;41317;-75
2020/12/06 11:08:52;;;;;;;26.90;19.10;;;4.50;99.90;;;;;;5026377;28;37500;-74
2020/12/06 11:11:20;;;;;;;31.20;20.70;;;4.60;99.90;;;;;;5023219;28;37808;-75
2020/12/06 11:13:46;;;;;;;27.17;19.17;;;4.60;99.90;;;;;;5029463;28;38439;-74
2020/12/06 11:16:22;;;;;;;30.27;21.83;;;4.60;99.90;;;;;;5021201;28;37438;-76
2020/12/06 11:18:49;;;;;;;28.17;21.63;;;4.70;99.90;;;;;;5018893;28;38166;-76
2020/12/06 11:21:19;;;;;;;26.13;20.40;;;4.70;99.90;;;;;;5059055;28;37889;-76
2020/12/06 11:23:47;;;;;;;29.73;21.63;;;4.80;99.90;;;;;;5051819;28;37944;-76
2020/12/06 11:26:15;;;;;;;28.23;20.73;;;4.80;99.90;;;;;;5021389;28;38564;-77
2020/12/06 11:28:42;;;;;;;29.17;21.10;;;4.80;99.90;;;;;;5026123;28;36300;-78
2020/12/06 11:31:09;;;;;;;22.80;18.67;;;4.80;99.90;;;;;;5021745;28;40410;-77
2020/12/06 11:33:36;;;;;;;25.40;19.03;;;4.80;99.90;;;;;;5023334;28;37446;-76
2020/12/06 11:36:03;;;;;;;28.00;19.30;;;4.80;99.90;;;;;;5042302;28;37787;-78
2020/12/06 11:38:29;;;;;;;26.63;19.40;;;4.90;99.90;;;;;;5026788;28;36236;-78
2020/12/06 11:40:56;;;;;;;24.63;17.97;;;4.90;99.90;;;;;;5045893;28;39370;-78
2020/12/06 11:43:22;;;;;;;25.40;19.37;;;4.90;99.90;;;;;;5031004;28;36262;-77
2020/12/06 11:45:48;;;;;;;25.10;17.93;;;4.80;99.90;;;;;;5048897;28;37110;-80
2020/12/06 11:48:14;;;;;;;24.33;18.83;;;4.80;99.90;;;;;;5044460;28;37902;-78
2020/12/06 11:50:40;;;;;;;23.77;17.33;;;4.70;99.90;;;;;;5062134;28;38804;-81
2020/12/06 11:53:07;;;;;;;26.40;18.00;;;4.70;99.90;;;;;;5048392;28;38758;-81
2020/12/06 11:55:39;;;;;;;29.97;21.60;;;4.70;99.90;;;;;;5050374;28;37750;-79
2020/12/06 11:58:05;;;;;;;26.90;19.27;;;4.90;99.90;;;;;;5043155;28;36666;-81
2020/12/06 12:00:31;;;;;;;25.50;18.50;;;4.90;99.90;;;;;;5048264;28;39971;-79
2020/12/06 12:02:57;;;;;;;22.47;16.73;;;4.90;99.90;;;;;;5030317;28;37489;-79
2020/12/06 12:05:23;;;;;;;26.70;19.23;;;4.80;99.90;;;;;;5038659;28;38220;-79
2020/12/06 12:07:49;;;;;;;23.47;18.23;;;4.80;99.90;;;;;;5020316;28;37225;-79
2020/12/06 12:10:16;;;;;;;26.97;21.63;;;4.80;99.90;;;;;;5035268;28;37556;-79
2020/12/06 12:12:43;;;;;;;21.40;17.43;;;4.80;99.90;;;;;;5028580;28;38468;-79
2020/12/06 12:15:09;;;;;;;25.83;19.97;;;4.80;99.90;;;;;;5055030;28;37751;-78
2020/12/06 12:17:36;;;;;;;26.23;18.83;;;4.80;99.90;;;;;;5016325;28;37170;-79
2020/12/06 12:20:04;;;;;;;24.03;18.77;;;4.80;99.90;;;;;;5036348;28;38753;-78
2020/12/06 12:22:30;;;;;;;24.87;18.83;;;4.70;99.90;;;;;;5045305;28;38163;-78
2020/12/06 12:24:56;;;;;;;23.97;18.10;;;4.70;99.90;;;;;;5007228;28;37859;-77
2020/12/06 12:27:23;;;;;;;26.63;18.30;;;4.60;99.90;;;;;;5051196;28;36827;-77
2020/12/06 12:29:49;;;;;;;25.50;18.87;;;4.60;99.90;;;;;;5007063;28;39071;-76
2020/12/06 12:32:15;;;;;;;25.30;17.47;;;4.60;99.90;;;;;;5009300;28;38792;-76
2020/12/06 12:34:41;;;;;;;25.37;17.90;;;4.60;99.90;;;;;;5037704;28;36911;-76
2020/12/06 12:37:08;;;;;;;24.90;18.13;;;4.70;99.90;;;;;;5035431;28;37301;-76